createdAt,value
2019-05-14T00:02:28.331Z,70.20
2019-05-14T00:04:56.748Z,69.90
2019-05-14T00:07:25.233Z,70.08
2019-05-14T00:09:53.626Z,70.18
2019-05-14T00:12:22.504Z,70.20
2019-05-14T00:14:51.666Z,69.90
2019-05-14T00:17:21.533Z,70.16
2019-05-14T00:20:05.975Z,70.42
2019-05-14T00:22:21.855Z,70.86
2019-05-14T00:24:51.988Z,70.75
2019-05-14T00:27:21.848Z,71.74
2019-05-14T00:29:51.825Z,71.94
2019-05-14T00:32:21.765Z,73.80
2019-05-14T00:34:51.550Z,74.51
2019-05-14T00:37:21.688Z,74.79
2019-05-14T00:39:52.020Z,75.45
2019-05-14T00:42:21.508Z,76.08
2019-05-14T00:44:56.913Z,75.94
2019-05-14T00:47:21.703Z,75.72
2019-05-14T00:49:51.728Z,75.28
2019-05-14T00:52:22.231Z,74.87
2019-05-14T00:54:52.243Z,74.82
2019-05-14T00:57:21.207Z,75.49
2019-05-14T00:59:51.939Z,75.77
2019-05-14T01:02:21.791Z,76.27
2019-05-14T01:04:51.647Z,76.69
2019-05-14T01:07:21.172Z,76.88
2019-05-14T01:09:52.124Z,77.69
2019-05-14T01:12:21.462Z,77.97
2019-05-14T01:14:52.811Z,78.75
2019-05-14T01:17:22.399Z,79.32
2019-05-14T01:19:51.358Z,79.56
2019-05-14T01:22:21.224Z,79.68
2019-05-14T01:24:52.056Z,78.95
2019-05-14T01:27:21.099Z,79.40
2019-05-14T01:29:51.438Z,80.19
2019-05-14T01:32:21.907Z,80.15
2019-05-14T01:34:52.185Z,79.74
2019-05-14T01:37:21.826Z,79.41
2019-05-14T01:39:52.000Z,79.31
2019-05-14T01:42:21.591Z,79.36
2019-05-14T01:44:51.895Z,79.48
2019-05-14T01:47:21.431Z,79.80
2019-05-14T01:49:51.564Z,80.19
2019-05-14T01:52:21.775Z,80.08
2019-05-14T01:54:51.491Z,79.63
2019-05-14T01:57:21.878Z,79.80
2019-05-14T01:59:51.700Z,80.34
2019-05-14T02:02:22.059Z,79.95
2019-05-14T02:04:51.266Z,81.07
2019-05-14T02:07:22.021Z,81.73
2019-05-14T02:09:51.869Z,82.31
2019-05-14T02:12:22.346Z,83.10
2019-05-14T02:14:51.245Z,83.33
2019-05-14T02:17:21.300Z,83.46
2019-05-14T02:19:51.469Z,84.02
2019-05-14T02:22:21.619Z,84.40
2019-05-14T02:24:51.976Z,84.90
2019-05-14T02:27:21.425Z,85.34
2019-05-14T02:29:51.949Z,85.55
2019-05-14T02:32:20.143Z,86.23
2019-05-14T02:34:49.906Z,86.60
2019-05-14T02:37:19.391Z,86.96
2019-05-14T02:39:50.136Z,86.82
2019-05-14T02:42:19.637Z,86.32
2019-05-14T02:44:49.047Z,85.93
2019-05-14T02:47:19.542Z,86.53
2019-05-14T02:49:50.080Z,87.32
2019-05-14T02:52:20.417Z,87.88
2019-05-14T02:54:49.592Z,87.51
2019-05-14T02:57:20.107Z,88.10
2019-05-14T02:59:50.190Z,88.14
2019-05-14T03:02:18.899Z,88.28
2019-05-14T03:04:49.798Z,88.21
2019-05-14T03:07:19.431Z,88.21
2019-05-14T03:09:50.065Z,88.00
2019-05-14T03:12:19.372Z,88.00
2019-05-14T03:14:49.947Z,87.59
2019-05-14T03:17:19.834Z,87.29
2019-05-14T03:19:49.749Z,87.49
2019-05-14T03:22:26.981Z,87.84
2019-05-14T03:24:50.271Z,88.49
2019-05-14T03:28:40.751Z,89.79
2019-05-14T03:31:12.689Z,89.82
2019-05-14T03:33:44.074Z,90.14
2019-05-14T03:36:17.172Z,90.42
2019-05-14T03:38:39.955Z,94.86
2019-05-14T03:41:09.344Z,97.90
2019-05-14T03:43:39.189Z,95.93
2019-05-14T03:46:09.694Z,99.23
2019-05-14T03:48:40.119Z,96.40
2019-05-14T03:51:09.163Z,95.32
2019-05-14T03:53:55.150Z,93.24
2019-05-14T03:56:10.367Z,93.92
2019-05-14T03:58:39.393Z,93.66
2019-05-14T04:01:09.612Z,90.92
2019-05-14T04:03:39.926Z,92.29
2019-05-14T04:06:10.165Z,91.01
2019-05-14T04:08:41.401Z,92.26
2019-05-14T04:11:11.258Z,89.54
2019-05-14T04:13:41.273Z,88.53
2019-05-14T04:16:12.833Z,88.83
2019-05-14T04:18:41.874Z,88.19
2019-05-14T04:21:12.985Z,88.73
2019-05-14T04:23:44.425Z,88.76
2019-05-14T04:26:13.472Z,89.21
2019-05-14T04:28:45.836Z,88.30
2019-05-14T04:31:18.942Z,88.04
2019-05-14T04:33:49.614Z,86.65
2019-05-14T04:36:19.470Z,86.13
2019-05-14T04:38:51.433Z,85.33
2019-05-14T04:41:19.558Z,84.69
2019-05-14T04:43:50.062Z,84.04
2019-05-14T04:46:19.853Z,83.44
2019-05-14T04:48:50.497Z,83.03
2019-05-14T04:51:19.903Z,83.31
2019-05-14T04:53:50.032Z,82.85
2019-05-14T04:56:19.782Z,82.65
2019-05-14T04:58:49.692Z,82.85
2019-05-14T05:01:20.615Z,82.96
2019-05-14T05:03:50.346Z,82.49
2019-05-14T05:06:19.359Z,82.60
2019-05-14T05:08:49.832Z,82.66
2019-05-14T05:11:21.351Z,81.71
2019-05-14T05:13:48.857Z,81.43
2019-05-14T05:16:19.311Z,81.20
2019-05-14T05:18:49.035Z,80.71
2019-05-14T05:21:19.321Z,79.54
2019-05-14T05:23:49.286Z,78.92
2019-05-14T05:26:18.571Z,77.84
2019-05-14T05:29:02.986Z,77.03
2019-05-14T05:31:19.213Z,76.48
2019-05-14T05:33:48.958Z,76.13
2019-05-14T05:36:18.593Z,74.52
2019-05-14T05:38:49.053Z,74.56
2019-05-14T05:41:19.124Z,72.71
2019-05-14T05:43:48.433Z,71.17
2019-05-14T05:46:19.194Z,70.26
2019-05-14T05:48:48.181Z,65.95
2019-05-14T05:51:18.762Z,65.95
2019-05-14T05:53:48.319Z,62.94
2019-05-14T05:56:18.713Z,59.23
2019-05-14T05:58:48.839Z,58.14
2019-05-14T06:01:19.670Z,57.17
2019-05-14T06:03:49.182Z,55.92
2019-05-14T06:06:19.187Z,55.33
2019-05-14T06:08:49.121Z,54.35
2019-05-14T06:11:19.382Z,52.82
2019-05-14T06:13:48.616Z,53.11
2019-05-14T06:16:18.678Z,50.95
2019-05-14T06:18:48.318Z,51.00
2019-05-14T06:21:19.125Z,50.06
2019-05-14T06:23:48.959Z,50.08
2019-05-14T06:26:19.156Z,49.10
2019-05-14T06:28:49.207Z,48.59
2019-05-14T06:31:19.193Z,48.47
2019-05-14T06:33:48.845Z,47.53
2019-05-14T06:36:19.534Z,47.09
2019-05-14T06:38:49.353Z,46.16
2019-05-14T06:41:19.140Z,46.05
2019-05-14T06:43:48.637Z,45.07
2019-05-14T06:46:19.436Z,44.76
2019-05-14T06:48:48.565Z,44.76
2019-05-14T06:51:20.042Z,44.00
2019-05-14T06:53:49.884Z,43.79
2019-05-14T06:56:21.024Z,42.28
2019-05-14T06:58:49.059Z,42.28
2019-05-14T07:01:18.505Z,41.38
2019-05-14T07:03:49.027Z,41.54
2019-05-14T07:06:18.607Z,41.56
2019-05-14T07:08:48.633Z,43.27
2019-05-14T07:11:19.170Z,42.10
2019-05-14T07:13:49.114Z,42.88
2019-05-14T07:16:19.682Z,41.41
2019-05-14T07:18:52.835Z,41.60
2019-05-14T07:21:18.754Z,40.09
2019-05-14T07:23:49.020Z,39.80
2019-05-14T07:26:19.321Z,39.71
2019-05-14T07:28:48.826Z,38.59
2019-05-14T07:31:18.633Z,38.84
2019-05-14T07:33:49.404Z,39.67
2019-05-14T07:36:18.863Z,39.20
2019-05-14T07:38:48.914Z,37.96
2019-05-14T07:41:19.283Z,37.27
2019-05-14T07:43:48.425Z,36.68
2019-05-14T07:46:19.170Z,36.66
2019-05-14T07:49:03.938Z,36.33
2019-05-14T07:51:18.977Z,35.88
2019-05-14T07:53:48.765Z,35.40
2019-05-14T07:56:18.748Z,35.14
2019-05-14T07:58:49.061Z,34.96
2019-05-14T08:01:18.688Z,35.15
2019-05-14T08:06:13.397Z,35.05
2019-05-14T08:08:42.032Z,34.57
2019-05-14T08:11:10.562Z,34.67
2019-05-14T08:13:39.467Z,34.66
2019-05-14T08:16:09.190Z,34.60
2019-05-14T08:18:39.571Z,34.62
2019-05-14T08:21:08.588Z,34.10
2019-05-14T08:23:39.246Z,34.38
2019-05-14T08:26:08.079Z,34.49
2019-05-14T08:28:38.318Z,35.07
2019-05-14T08:31:09.087Z,34.31
2019-05-14T08:33:39.439Z,34.07
2019-05-14T08:36:08.925Z,33.47
2019-05-14T08:38:38.292Z,33.80
2019-05-14T08:41:08.477Z,34.34
2019-05-14T08:43:39.564Z,34.70
2019-05-14T08:46:08.183Z,33.49
2019-05-14T08:48:38.978Z,33.53
2019-05-14T08:51:09.187Z,33.12
2019-05-14T08:53:38.369Z,33.83
2019-05-14T08:56:08.396Z,32.63
2019-05-14T08:58:38.482Z,32.02
2019-05-14T09:01:08.249Z,31.62
2019-05-14T09:03:39.233Z,31.44
2019-05-14T09:06:09.179Z,30.31
2019-05-14T09:08:38.934Z,29.92
2019-05-14T09:11:09.932Z,30.35
2019-05-14T09:13:38.268Z,29.28
2019-05-14T09:16:09.254Z,29.39
2019-05-14T09:18:38.483Z,28.73
2019-05-14T09:21:08.615Z,28.31
2019-05-14T09:23:39.162Z,27.77
2019-05-14T09:26:09.643Z,28.95
2019-05-14T09:28:39.487Z,29.27
2019-05-14T09:31:08.519Z,29.26
2019-05-14T09:33:39.050Z,28.30
2019-05-14T09:36:17.886Z,27.77
2019-05-14T09:38:42.235Z,27.66
2019-05-14T09:41:14.755Z,26.93
2019-05-14T09:43:39.240Z,26.75
2019-05-14T09:46:08.985Z,27.14
2019-05-14T09:48:38.170Z,27.42
2019-05-14T09:51:09.055Z,26.86
2019-05-14T09:53:38.340Z,27.13
2019-05-14T09:56:09.119Z,26.28
2019-05-14T09:58:38.775Z,25.89
2019-05-14T10:01:08.475Z,25.70
2019-05-14T10:03:39.183Z,26.01
2019-05-14T10:06:09.825Z,27.03
2019-05-14T10:08:39.102Z,27.09
2019-05-14T10:11:07.701Z,27.57
2019-05-14T10:13:39.003Z,27.80
2019-05-14T10:16:09.256Z,26.94
2019-05-14T10:18:38.083Z,26.26
2019-05-14T10:21:08.668Z,25.15
2019-05-14T10:23:38.961Z,24.35
2019-05-14T10:26:09.097Z,24.22
2019-05-14T10:28:41.185Z,25.27
2019-05-14T10:31:09.403Z,25.62
2019-05-14T10:33:38.502Z,25.22
2019-05-14T10:36:09.177Z,25.82
2019-05-14T10:38:38.768Z,26.65
2019-05-14T10:41:08.978Z,26.74
2019-05-14T10:43:39.158Z,26.94
2019-05-14T10:46:09.148Z,26.96
2019-05-14T10:48:39.543Z,26.97
2019-05-14T10:51:09.909Z,26.98
2019-05-14T10:53:38.028Z,26.06
2019-05-14T10:56:06.519Z,25.76
2019-05-14T10:58:34.939Z,26.37
2019-05-14T11:01:03.399Z,25.72
2019-05-14T11:03:31.830Z,24.89
2019-05-14T11:06:00.241Z,25.20
2019-05-14T11:08:29.676Z,24.94
2019-05-14T11:11:03.841Z,23.86
2019-05-14T11:13:29.488Z,25.48
2019-05-14T11:15:59.673Z,26.39
2019-05-14T11:18:29.294Z,27.83
2019-05-14T11:21:18.034Z,27.90
2019-05-14T11:23:29.734Z,28.09
2019-05-14T11:25:58.381Z,27.84
2019-05-14T11:28:28.618Z,27.78
2019-05-14T11:30:57.062Z,27.58
2019-05-14T11:33:25.881Z,27.15
2019-05-14T11:35:54.312Z,27.89
2019-05-14T11:38:33.797Z,28.63
2019-05-14T11:40:52.943Z,28.72
2019-05-14T11:43:21.411Z,28.62
2019-05-14T11:45:49.852Z,28.87
2019-05-14T11:48:19.378Z,28.51
2019-05-14T11:50:49.240Z,28.43
2019-05-14T11:53:19.794Z,27.68
2019-05-14T11:55:50.375Z,27.05
2019-05-14T11:58:20.807Z,25.78
2019-05-14T12:00:48.702Z,25.49
2019-05-14T12:03:19.740Z,24.97
2019-05-14T12:05:49.564Z,25.00
2019-05-14T12:08:18.533Z,24.81
2019-05-14T12:10:47.235Z,24.49
2019-05-14T12:13:15.662Z,24.99
2019-05-14T12:15:44.130Z,25.50
2019-05-14T12:18:12.554Z,25.17
2019-05-14T12:20:40.947Z,26.01
2019-05-14T12:23:09.421Z,26.13
2019-05-14T12:25:37.822Z,26.92
2019-05-14T12:28:13.224Z,27.90
2019-05-14T12:30:39.278Z,27.89
2019-05-14T12:33:06.806Z,27.12
2019-05-14T12:35:35.238Z,26.47
2019-05-14T12:38:03.702Z,26.20
2019-05-14T12:40:32.191Z,26.18
2019-05-14T12:43:00.582Z,26.47
2019-05-14T12:45:29.962Z,26.31
2019-05-14T12:47:58.651Z,26.67
2019-05-14T12:50:27.137Z,27.08
2019-05-14T12:52:55.530Z,27.10
2019-05-14T12:55:23.950Z,27.77
2019-05-14T12:57:52.413Z,27.35
2019-05-14T13:00:21.377Z,25.72
2019-05-14T13:02:49.758Z,25.81
2019-05-14T13:05:18.618Z,25.53
2019-05-14T13:07:50.794Z,24.00
2019-05-14T13:10:18.880Z,23.66
2019-05-14T13:12:48.387Z,24.19
2019-05-14T13:15:20.038Z,25.05
2019-05-14T13:17:48.404Z,25.96
2019-05-14T13:20:18.540Z,26.63
2019-05-14T13:22:50.100Z,27.12
2019-05-14T13:25:19.245Z,26.92
2019-05-14T13:27:47.615Z,26.87
2019-05-14T13:30:18.498Z,25.76
2019-05-14T13:32:48.758Z,24.64
2019-05-14T13:35:19.557Z,24.79
2019-05-14T13:37:49.081Z,24.74
2019-05-14T13:40:21.196Z,24.72
2019-05-14T13:42:49.887Z,24.59
2019-05-14T13:45:19.199Z,23.49
2019-05-14T13:47:48.880Z,24.14
2019-05-14T13:50:19.732Z,24.04
2019-05-14T13:53:02.117Z,23.81
2019-05-14T13:55:19.428Z,24.52
2019-05-14T13:57:48.837Z,25.78
2019-05-14T14:00:19.993Z,25.56
2019-05-14T14:02:48.015Z,26.33
2019-05-14T14:05:19.857Z,26.86
2019-05-14T14:07:48.538Z,26.78
2019-05-14T14:10:17.420Z,25.98
2019-05-14T14:12:49.269Z,25.65
2019-05-14T14:15:16.200Z,25.00
2019-05-14T14:17:44.713Z,23.98
2019-05-14T14:20:13.458Z,23.62
2019-05-14T14:22:41.898Z,24.33
2019-05-14T14:25:10.759Z,25.43
2019-05-14T14:27:41.115Z,26.44
2019-05-14T14:30:10.421Z,27.10
2019-05-14T14:32:40.647Z,27.86
2019-05-14T14:35:11.072Z,27.68
2019-05-14T14:37:40.199Z,27.51
2019-05-14T14:40:10.581Z,27.13
2019-05-14T14:42:40.258Z,26.35
2019-05-14T14:45:09.426Z,25.94
2019-05-14T14:47:39.346Z,25.98
2019-05-14T14:50:09.245Z,26.19
2019-05-14T14:52:37.777Z,25.72
2019-05-14T14:55:07.026Z,26.84
2019-05-14T14:57:35.689Z,25.41
2019-05-14T15:00:05.432Z,25.31
2019-05-14T15:02:33.826Z,25.20
2019-05-14T15:05:02.334Z,24.75
2019-05-14T15:07:30.773Z,25.00
2019-05-14T15:09:59.738Z,25.01
2019-05-14T15:12:29.152Z,24.55
2019-05-14T15:14:59.429Z,25.11
2019-05-14T15:17:29.564Z,24.77
2019-05-14T15:19:59.419Z,24.95
2019-05-14T15:22:31.005Z,25.00
2019-05-14T15:24:58.798Z,25.59
2019-05-14T15:27:28.315Z,25.47
2019-05-14T15:29:59.141Z,25.48
2019-05-14T15:32:30.004Z,25.68
2019-05-14T15:34:59.335Z,26.30
2019-05-14T15:37:28.515Z,26.59
2019-05-14T15:39:57.826Z,27.22
2019-05-14T15:42:28.292Z,26.73
2019-05-14T15:44:59.566Z,26.58
2019-05-14T15:47:26.560Z,26.86
2019-05-14T15:49:55.033Z,26.57
2019-05-14T15:52:23.562Z,25.50
2019-05-14T15:54:52.082Z,25.88
2019-05-14T15:57:20.710Z,26.67
2019-05-14T15:59:49.240Z,27.08
2019-05-14T16:02:20.053Z,27.74
2019-05-14T16:04:47.950Z,28.34
2019-05-14T16:07:18.615Z,28.04
2019-05-14T16:09:49.179Z,28.18
2019-05-14T16:12:19.473Z,27.89
2019-05-14T16:14:51.043Z,28.91
2019-05-14T16:17:24.853Z,28.19
2019-05-14T16:19:49.670Z,28.63
2019-05-14T16:22:19.463Z,28.96
2019-05-14T16:24:56.292Z,29.06
2019-05-14T16:27:19.721Z,29.88
2019-05-14T16:29:48.479Z,31.63
2019-05-14T16:32:16.893Z,30.08
2019-05-14T16:34:45.399Z,30.67
2019-05-14T16:37:13.956Z,30.58
2019-05-14T16:39:42.384Z,30.64
2019-05-14T16:42:11.008Z,30.97
2019-05-14T16:44:39.400Z,30.90
2019-05-14T16:47:09.937Z,31.04
2019-05-14T16:49:38.225Z,30.73
2019-05-14T16:52:09.071Z,30.60
2019-05-14T16:54:39.314Z,30.41
2019-05-14T16:57:11.026Z,30.49
2019-05-14T16:59:39.474Z,30.67
2019-05-14T17:02:09.172Z,29.96
2019-05-14T17:04:38.758Z,30.13
2019-05-14T17:07:09.499Z,30.58
2019-05-14T17:09:38.485Z,31.04
2019-05-14T17:12:08.551Z,31.52
2019-05-14T17:14:38.546Z,32.39
2019-05-14T17:17:09.213Z,35.02
2019-05-14T17:19:38.591Z,32.08
2019-05-14T17:22:23.349Z,31.88
2019-05-14T17:24:39.798Z,30.67
2019-05-14T17:27:08.852Z,31.71
2019-05-14T17:29:38.874Z,31.41
2019-05-14T17:32:07.610Z,31.39
2019-05-14T17:34:38.666Z,31.77
2019-05-14T17:37:08.960Z,32.24
2019-05-14T17:39:38.706Z,32.69
2019-05-14T17:42:11.400Z,33.00
2019-05-14T17:44:38.831Z,32.98
2019-05-14T17:47:07.476Z,33.48
2019-05-14T17:49:35.999Z,33.68
2019-05-14T17:52:04.539Z,33.83
2019-05-14T17:54:32.987Z,33.98
2019-05-14T17:57:01.556Z,34.28
2019-05-14T17:59:33.058Z,34.98
2019-05-14T18:02:01.321Z,35.27
2019-05-14T18:04:29.729Z,35.50
2019-05-14T18:06:59.150Z,35.61
2019-05-14T18:09:29.287Z,35.99
2019-05-14T18:11:58.580Z,36.04
2019-05-14T18:14:28.402Z,36.14
2019-05-14T18:16:58.462Z,36.49
2019-05-14T18:19:28.926Z,36.78
2019-05-14T18:21:59.341Z,36.94
2019-05-14T18:24:28.592Z,37.35
2019-05-14T18:26:57.111Z,37.50
2019-05-14T18:29:25.523Z,37.62
2019-05-14T18:31:55.078Z,37.97
2019-05-14T18:34:23.862Z,38.19
2019-05-14T18:36:52.298Z,38.31
2019-05-14T18:39:21.247Z,38.64
2019-05-14T18:41:50.128Z,38.89
2019-05-14T18:44:19.113Z,39.19
2019-05-14T18:46:48.729Z,39.44
2019-05-14T18:49:19.442Z,39.61
2019-05-14T18:51:50.159Z,40.11
2019-05-14T18:54:17.714Z,40.59
2019-05-14T18:56:48.746Z,41.05
2019-05-14T18:59:20.942Z,42.85
2019-05-14T19:01:48.873Z,42.05
2019-05-14T19:04:18.505Z,42.08
2019-05-14T19:06:48.296Z,42.36
2019-05-14T19:09:18.573Z,42.58
2019-05-14T19:11:48.234Z,42.75
2019-05-14T19:14:18.725Z,43.17
2019-05-14T19:16:48.967Z,43.28
2019-05-14T19:19:17.588Z,43.89
2019-05-14T19:21:46.042Z,44.16
2019-05-14T19:24:14.439Z,44.26
2019-05-14T19:26:43.144Z,44.51
2019-05-14T19:29:11.561Z,44.87
2019-05-14T19:31:40.082Z,45.32
2019-05-14T19:34:08.650Z,45.32
2019-05-14T19:36:37.103Z,45.58
2019-05-14T19:39:07.898Z,45.86
2019-05-14T19:41:36.280Z,46.70
2019-05-14T19:44:05.735Z,46.70
2019-05-14T19:46:34.252Z,47.07
2019-05-14T19:49:02.734Z,47.24
2019-05-14T19:51:31.416Z,47.46
2019-05-14T19:53:59.888Z,47.73
2019-05-14T19:56:29.304Z,49.28
2019-05-14T19:58:57.903Z,49.28
2019-05-14T20:03:34.953Z,50.59
2019-05-14T20:06:03.408Z,51.02
2019-05-14T20:08:31.925Z,51.02
2019-05-14T20:11:00.317Z,51.23
2019-05-14T20:13:28.833Z,50.45
2019-05-14T20:15:59.055Z,50.35
2019-05-14T20:18:28.959Z,50.97
2019-05-14T20:20:59.109Z,50.97
2019-05-14T20:23:29.126Z,50.83
2019-05-14T20:25:58.714Z,51.31
2019-05-14T20:28:27.227Z,51.82
2019-05-14T20:30:58.428Z,51.82
2019-05-14T20:33:25.870Z,52.27
2019-05-14T20:35:54.261Z,52.49
2019-05-14T20:38:22.791Z,52.38
2019-05-14T20:40:51.362Z,52.74
2019-05-14T20:43:19.913Z,52.45
2019-05-14T20:45:49.061Z,52.45
2019-05-14T20:48:18.808Z,53.04
2019-05-14T20:50:47.576Z,53.60
2019-05-14T20:53:18.290Z,53.60
2019-05-14T20:55:50.663Z,53.37
2019-05-14T20:58:20.045Z,53.24
2019-05-14T21:00:48.755Z,53.21
2019-05-14T21:03:18.672Z,53.01
2019-05-14T21:05:49.165Z,52.79
2019-05-14T21:08:18.852Z,53.06
2019-05-14T21:10:49.393Z,53.37
2019-05-14T21:13:18.248Z,53.80
2019-05-14T21:15:48.297Z,54.10
2019-05-14T21:18:18.930Z,54.56
2019-05-14T21:20:48.803Z,54.69
2019-05-14T21:23:18.304Z,55.00
2019-05-14T21:25:48.315Z,55.51
2019-05-14T21:28:16.863Z,55.87
2019-05-14T21:30:45.282Z,56.06
2019-05-14T21:33:13.653Z,56.13
2019-05-14T21:35:42.047Z,56.36
2019-05-14T21:38:10.439Z,55.98
2019-05-14T21:40:39.225Z,56.02
2019-05-14T21:43:11.101Z,56.09
2019-05-14T21:45:38.446Z,56.21
2019-05-14T21:48:08.673Z,56.29
2019-05-14T21:50:38.712Z,56.37
2019-05-14T21:53:08.457Z,56.60
2019-05-14T21:55:38.864Z,56.97
2019-05-14T21:58:09.061Z,57.83
2019-05-14T22:00:42.429Z,57.83
2019-05-14T22:03:10.951Z,58.08
2019-05-14T22:05:39.601Z,58.48
2019-05-14T22:08:08.865Z,58.77
2019-05-14T22:10:39.644Z,59.27
2019-05-14T22:13:07.649Z,59.56
2019-05-14T22:15:38.633Z,60.16
2019-05-14T22:18:16.529Z,60.43
2019-05-14T22:20:38.629Z,60.70
2019-05-14T22:23:08.951Z,61.37
2019-05-14T22:25:39.584Z,62.05
2019-05-14T22:28:15.107Z,62.31
2019-05-14T22:30:38.796Z,62.62
2019-05-14T22:33:08.535Z,62.67
2019-05-14T22:35:39.552Z,62.53
2019-05-14T22:38:07.402Z,62.88
2019-05-14T22:40:35.963Z,63.11
2019-05-14T22:43:04.469Z,63.32
2019-05-14T22:45:32.887Z,63.60
2019-05-14T22:48:01.399Z,64.00
2019-05-14T22:50:29.790Z,64.12
2019-05-14T22:52:58.646Z,64.37
2019-05-14T22:55:30.868Z,64.38
2019-05-14T22:57:59.369Z,64.75
2019-05-14T23:00:28.802Z,64.53
2019-05-14T23:02:57.414Z,64.78
2019-05-14T23:05:25.803Z,65.28
2019-05-14T23:07:54.405Z,65.56
2019-05-14T23:10:22.804Z,65.68
2019-05-14T23:12:51.251Z,65.89
2019-05-14T23:15:19.714Z,66.02
2019-05-14T23:17:48.305Z,66.01
2019-05-14T23:20:19.379Z,66.21
2019-05-14T23:22:49.112Z,66.71
2019-05-14T23:25:18.524Z,66.86
2019-05-14T23:27:48.110Z,67.29
2019-05-14T23:30:19.815Z,67.83
2019-05-14T23:32:49.067Z,68.46
2019-05-14T23:35:18.811Z,68.53
2019-05-14T23:37:48.837Z,68.49
2019-05-14T23:40:17.961Z,68.35
2019-05-14T23:42:48.741Z,68.28
2019-05-14T23:45:18.833Z,67.93
2019-05-14T23:47:49.013Z,68.30
2019-05-14T23:50:16.882Z,68.27
2019-05-14T23:52:45.313Z,68.51
2019-05-14T23:55:13.760Z,68.62
2019-05-14T23:57:42.354Z,68.38
